createdAt,value
2023-02-28T00:02:04.272Z,7.25
2023-02-28T00:05:02.008Z,9.48
2023-02-28T00:07:52.575Z,7.00
2023-02-28T00:10:43.048Z,6.32
2023-02-28T00:13:35.207Z,8.23
2023-02-28T00:16:25.434Z,6.25
2023-02-28T00:19:15.920Z,6.53
2023-02-28T00:22:06.535Z,5.82
2023-02-28T00:24:57.096Z,9.50
2023-02-28T00:27:48.021Z,7.68
2023-02-28T00:30:38.346Z,8.35
2023-02-28T00:33:29.358Z,7.20
2023-02-28T00:36:19.553Z,7.85
2023-02-28T00:39:09.536Z,6.38
2023-02-28T00:42:00.012Z,8.63
2023-02-28T00:44:50.541Z,6.47
2023-02-28T00:47:40.821Z,9.60
2023-02-28T00:50:31.092Z,9.10
2023-02-28T00:53:23.021Z,8.95
2023-02-28T00:56:14.482Z,8.93
2023-02-28T00:59:04.539Z,5.43
2023-02-28T01:01:54.883Z,6.82
2023-02-28T01:04:45.830Z,8.60
2023-02-28T01:07:35.932Z,7.13
2023-02-28T01:10:26.776Z,7.45
2023-02-28T01:13:17.302Z,9.75
2023-02-28T01:16:07.932Z,9.85
2023-02-28T01:18:59.011Z,6.60
2023-02-28T01:21:49.242Z,6.95
2023-02-28T01:24:39.642Z,8.25
2023-02-28T01:27:29.967Z,6.75
2023-02-28T01:30:20.249Z,8.50
2023-02-28T01:33:10.838Z,7.40
2023-02-28T01:36:02.645Z,7.82
2023-02-28T01:38:53.437Z,10.32
2023-02-28T01:41:45.484Z,9.07
2023-02-28T01:45:03.299Z,10.60
2023-02-28T01:48:08.964Z,8.13
2023-02-28T01:51:06.149Z,8.00
2023-02-28T01:54:03.439Z,7.90
2023-02-28T01:57:06.974Z,10.15
2023-02-28T02:00:08.414Z,5.22
2023-02-28T02:03:10.552Z,9.32
2023-02-28T02:06:01.543Z,8.32
2023-02-28T02:08:51.870Z,7.53
2023-02-28T02:11:44.216Z,9.32
2023-02-28T02:14:50.424Z,8.05
2023-02-28T02:17:45.532Z,7.63
2023-02-28T02:21:12.971Z,9.07
2023-02-28T02:24:09.509Z,9.30
2023-02-28T02:27:11.544Z,7.47
2023-02-28T02:30:51.470Z,14.52
2023-02-28T02:34:11.801Z,9.70
2023-02-28T02:37:08.142Z,8.57
2023-02-28T02:40:18.902Z,9.27
2023-02-28T02:43:23.858Z,8.75
2023-02-28T02:46:30.808Z,7.82
2023-02-28T02:49:27.382Z,6.80
2023-02-28T02:52:23.305Z,12.65
2023-02-28T02:55:15.762Z,10.30
2023-02-28T02:58:11.377Z,11.43
2023-02-28T03:01:03.278Z,13.25
2023-02-28T03:04:02.693Z,8.02
2023-02-28T03:06:55.747Z,9.25
2023-02-28T03:09:54.155Z,9.40
2023-02-28T03:12:55.082Z,9.85
2023-02-28T03:16:10.246Z,11.25
2023-02-28T03:19:07.891Z,9.32
2023-02-28T03:22:15.756Z,9.38
2023-02-28T03:25:36.788Z,10.90
2023-02-28T03:28:33.895Z,10.38
2023-02-28T03:31:31.469Z,11.23
2023-02-28T03:34:27.569Z,9.93
2023-02-28T03:37:23.154Z,11.48
2023-02-28T03:40:18.376Z,12.85
2023-02-28T03:43:18.802Z,11.68
2023-02-28T03:46:13.814Z,11.05
2023-02-28T03:49:25.332Z,8.70
2023-02-28T03:52:16.114Z,12.10
2023-02-28T03:55:11.791Z,9.75
2023-02-28T03:58:10.302Z,9.00
2023-02-28T04:01:09.214Z,13.70
2023-02-28T04:03:59.742Z,14.95
2023-02-28T04:06:52.131Z,10.25
2023-02-28T04:09:42.369Z,10.15
2023-02-28T04:12:32.557Z,7.28
2023-02-28T04:15:24.237Z,10.27
2023-02-28T04:18:14.227Z,11.82
2023-02-28T04:21:04.882Z,17.75
2023-02-28T04:23:54.944Z,11.38
2023-02-28T04:26:47.803Z,11.90
2023-02-28T04:29:37.826Z,10.43
2023-02-28T04:32:27.911Z,12.20
2023-02-28T04:35:18.217Z,9.43
2023-02-28T04:38:08.195Z,11.20
2023-02-28T04:40:59.656Z,12.68
2023-02-28T04:43:50.001Z,10.40
2023-02-28T04:46:40.095Z,10.65
2023-02-28T04:49:30.310Z,9.77
2023-02-28T04:52:20.746Z,11.30
2023-02-28T04:55:11.290Z,10.93
2023-02-28T04:58:01.276Z,9.85
2023-02-28T05:00:52.454Z,12.60
2023-02-28T05:03:43.561Z,8.60
2023-02-28T05:06:34.388Z,14.82
2023-02-28T05:09:24.264Z,11.10
2023-02-28T05:12:14.755Z,11.23
2023-02-28T05:15:05.911Z,15.00
2023-02-28T05:17:56.208Z,10.98
2023-02-28T05:20:46.755Z,13.07
2023-02-28T05:23:36.574Z,13.07
2023-02-28T05:26:27.540Z,9.10
2023-02-28T05:29:17.733Z,11.57
2023-02-28T05:32:12.822Z,11.63
2023-02-28T05:35:03.395Z,11.98
2023-02-28T05:37:53.746Z,9.80
2023-02-28T05:40:43.779Z,14.88
2023-02-28T05:43:33.622Z,13.40
2023-02-28T05:46:23.871Z,12.75
2023-02-28T05:49:13.774Z,13.00
2023-02-28T05:52:04.447Z,13.20
2023-02-28T05:54:54.545Z,11.63
2023-02-28T05:57:45.064Z,11.70
2023-02-28T06:00:35.972Z,12.40
2023-02-28T06:03:26.943Z,12.23
2023-02-28T06:06:17.554Z,10.85
2023-02-28T06:09:07.827Z,14.05
2023-02-28T06:12:04.752Z,15.68
2023-02-28T06:14:55.153Z,14.98
2023-02-28T06:17:45.416Z,14.70
2023-02-28T06:20:37.157Z,14.75
2023-02-28T06:23:28.015Z,14.45
2023-02-28T06:26:18.070Z,13.73
2023-02-28T06:29:08.507Z,15.55
2023-02-28T06:31:58.367Z,13.15
2023-02-28T06:34:48.955Z,14.45
2023-02-28T06:37:41.654Z,15.98
2023-02-28T06:40:35.078Z,13.30
2023-02-28T06:43:26.251Z,12.02
2023-02-28T06:46:16.401Z,13.50
2023-02-28T06:49:09.743Z,14.70
2023-02-28T06:51:59.992Z,12.43
2023-02-28T06:55:00.638Z,14.07
2023-02-28T06:57:51.725Z,13.80
2023-02-28T07:00:45.677Z,13.82
2023-02-28T07:03:36.805Z,15.38
2023-02-28T07:06:27.527Z,17.30
2023-02-28T07:09:17.883Z,14.23
2023-02-28T07:12:08.282Z,16.17
2023-02-28T07:14:58.668Z,16.98
2023-02-28T07:17:48.701Z,14.43
2023-02-28T07:20:39.237Z,12.77
2023-02-28T07:23:29.241Z,18.00
2023-02-28T07:26:21.107Z,15.55
2023-02-28T07:29:11.108Z,13.25
2023-02-28T07:32:01.387Z,14.38
2023-02-28T07:34:51.786Z,16.30
2023-02-28T07:37:43.340Z,16.23
2023-02-28T07:40:33.216Z,15.70
2023-02-28T07:43:23.519Z,14.27
2023-02-28T07:46:16.862Z,15.18
2023-02-28T07:49:08.051Z,16.40
2023-02-28T07:51:57.779Z,16.75
2023-02-28T07:54:48.148Z,16.90
2023-02-28T07:57:38.769Z,14.48
2023-02-28T08:00:30.191Z,17.02
2023-02-28T08:03:21.988Z,19.70
2023-02-28T08:06:18.648Z,14.98
2023-02-28T08:09:09.072Z,16.77
2023-02-28T08:11:58.922Z,15.90
2023-02-28T08:14:49.182Z,16.83
2023-02-28T08:17:39.995Z,17.88
2023-02-28T08:20:30.378Z,22.67
2023-02-28T08:23:20.875Z,18.80
2023-02-28T08:26:11.010Z,18.75
2023-02-28T08:29:01.821Z,18.10
2023-02-28T08:31:51.872Z,18.48
2023-02-28T08:34:42.283Z,14.32
2023-02-28T08:37:32.543Z,15.18
2023-02-28T08:40:22.488Z,20.60
2023-02-28T08:43:12.733Z,17.00
2023-02-28T08:46:04.616Z,18.13
2023-02-28T08:48:57.078Z,17.85
2023-02-28T08:51:47.718Z,19.83
2023-02-28T08:54:38.343Z,17.95
2023-02-28T08:57:28.811Z,20.58
2023-02-28T09:00:19.299Z,14.27
2023-02-28T09:03:09.496Z,18.67
2023-02-28T09:06:02.435Z,18.85
2023-02-28T09:08:53.027Z,23.67
2023-02-28T09:11:43.538Z,18.77
2023-02-28T09:14:33.736Z,16.77
2023-02-28T09:17:23.899Z,15.43
2023-02-28T09:20:13.873Z,15.80
2023-02-28T09:23:04.677Z,19.38
2023-02-28T09:25:55.912Z,16.65
2023-02-28T09:28:46.359Z,18.08
2023-02-28T09:31:36.885Z,18.08
2023-02-28T09:34:28.369Z,22.48
2023-02-28T09:37:18.514Z,21.23
2023-02-28T09:40:10.881Z,21.73
2023-02-28T09:43:01.284Z,19.88
2023-02-28T09:46:06.824Z,18.10
2023-02-28T09:48:58.130Z,17.33
2023-02-28T09:52:00.504Z,17.02
2023-02-28T09:54:50.799Z,18.05
2023-02-28T09:57:43.283Z,15.75
2023-02-28T10:00:37.339Z,16.17
2023-02-28T10:03:50.726Z,22.05
2023-02-28T10:06:47.650Z,17.20
2023-02-28T10:09:38.560Z,19.17
2023-02-28T10:12:31.912Z,24.15
2023-02-28T10:15:27.229Z,16.90
2023-02-28T10:18:22.301Z,17.25
2023-02-28T10:21:32.583Z,15.90
2023-02-28T10:24:22.396Z,17.83
2023-02-28T10:27:17.006Z,17.63
2023-02-28T10:30:10.461Z,18.73
2023-02-28T10:33:00.764Z,16.83
2023-02-28T10:35:52.504Z,21.08
2023-02-28T10:38:44.111Z,20.35
2023-02-28T10:41:37.419Z,16.20
2023-02-28T10:44:27.912Z,21.73
2023-02-28T10:47:20.438Z,17.30
2023-02-28T10:50:29.274Z,23.83
2023-02-28T10:53:25.776Z,20.85
2023-02-28T10:56:27.021Z,18.38
2023-02-28T10:59:29.344Z,15.77
2023-02-28T11:02:39.218Z,17.63
2023-02-28T11:05:36.282Z,19.83
2023-02-28T11:08:26.496Z,17.65
2023-02-28T11:11:17.906Z,18.20
2023-02-28T11:14:21.790Z,18.13
2023-02-28T11:17:21.580Z,15.10
2023-02-28T11:20:24.362Z,16.65
2023-02-28T11:23:15.398Z,17.02
2023-02-28T11:26:05.896Z,20.75
2023-02-28T11:29:18.221Z,15.35
2023-02-28T11:32:19.986Z,17.50
2023-02-28T11:35:09.934Z,18.70
2023-02-28T11:38:00.283Z,15.73
2023-02-28T11:40:56.627Z,20.05
2023-02-28T11:44:00.578Z,17.27
2023-02-28T11:46:55.546Z,19.00
2023-02-28T11:49:54.786Z,23.58
2023-02-28T11:52:55.417Z,18.67
2023-02-28T11:56:00.545Z,15.98
2023-02-28T11:59:13.245Z,17.15
2023-02-28T12:02:07.520Z,17.70
2023-02-28T12:05:32.171Z,18.80
2023-02-28T12:08:35.480Z,19.35
2023-02-28T12:11:44.296Z,18.90
2023-02-28T12:14:55.932Z,15.85
2023-02-28T12:17:59.522Z,20.40
2023-02-28T12:21:23.844Z,17.95
2023-02-28T12:24:24.629Z,19.87
2023-02-28T12:27:20.053Z,14.27
2023-02-28T12:30:22.779Z,17.77
2023-02-28T12:33:20.987Z,15.70
2023-02-28T12:36:18.393Z,18.95
2023-02-28T12:39:19.615Z,16.08
2023-02-28T12:42:21.074Z,15.70
2023-02-28T12:45:21.123Z,19.33
2023-02-28T12:48:20.704Z,15.13
2023-02-28T12:51:14.782Z,21.42
2023-02-28T12:54:30.808Z,15.80
2023-02-28T12:57:37.603Z,17.05
2023-02-28T13:00:37.108Z,13.65
2023-02-28T13:03:49.657Z,16.50
2023-02-28T13:06:55.071Z,16.75
2023-02-28T13:09:56.309Z,17.02
2023-02-28T13:12:52.017Z,18.88
2023-02-28T13:15:57.455Z,16.67
2023-02-28T13:18:48.041Z,16.65
2023-02-28T13:21:45.639Z,11.98
2023-02-28T13:24:41.020Z,16.75
2023-02-28T13:27:40.914Z,22.10
2023-02-28T13:30:53.857Z,14.70
2023-02-28T13:34:00.006Z,16.60
2023-02-28T13:36:50.168Z,15.98
2023-02-28T13:39:40.235Z,15.85
2023-02-28T13:42:39.501Z,15.85
2023-02-28T13:45:39.347Z,16.85
2023-02-28T13:48:30.570Z,19.25
2023-02-28T13:51:45.440Z,17.83
2023-02-28T13:55:00.656Z,15.00
2023-02-28T13:58:12.757Z,15.57
2023-02-28T14:01:31.315Z,17.08
2023-02-28T14:04:47.025Z,17.15
2023-02-28T14:07:48.085Z,16.17
2023-02-28T14:10:46.169Z,19.10
2023-02-28T14:13:48.009Z,16.08
2023-02-28T14:16:51.007Z,17.70
2023-02-28T14:19:44.558Z,16.70
2023-02-28T14:22:49.717Z,19.17
2023-02-28T14:26:07.736Z,24.48
2023-02-28T14:29:28.680Z,19.08
2023-02-28T14:32:55.400Z,18.45
2023-02-28T14:36:08.367Z,17.48
2023-02-28T14:39:02.132Z,16.90
2023-02-28T14:41:53.088Z,16.00
2023-02-28T14:44:42.949Z,19.85
2023-02-28T14:47:34.796Z,17.15
2023-02-28T14:50:30.586Z,18.60
2023-02-28T14:53:24.084Z,16.55
2023-02-28T14:56:26.019Z,18.10
2023-02-28T14:59:36.867Z,17.13
2023-02-28T15:02:30.832Z,19.75
2023-02-28T15:05:29.838Z,18.17
2023-02-28T15:08:21.067Z,15.35
2023-02-28T15:11:20.276Z,18.08
2023-02-28T15:14:17.979Z,24.13
2023-02-28T15:17:18.512Z,18.13
2023-02-28T15:20:17.032Z,16.80
2023-02-28T15:23:07.552Z,21.65
2023-02-28T15:25:59.757Z,19.58
2023-02-28T15:28:56.072Z,19.80
2023-02-28T15:31:58.319Z,20.25
2023-02-28T15:34:49.044Z,17.67
2023-02-28T15:37:46.248Z,17.05
2023-02-28T15:40:43.505Z,17.83
2023-02-28T15:43:35.785Z,19.10
2023-02-28T15:46:26.221Z,18.80
2023-02-28T15:49:21.693Z,16.90
2023-02-28T15:52:16.679Z,23.13
2023-02-28T15:55:23.329Z,16.65
2023-02-28T15:58:14.643Z,17.83
2023-02-28T16:01:19.636Z,18.30
2023-02-28T16:04:19.068Z,23.67
2023-02-28T16:07:19.037Z,21.30
2023-02-28T16:10:12.012Z,16.98
2023-02-28T16:13:03.767Z,17.77
2023-02-28T16:15:55.224Z,17.10
2023-02-28T16:18:45.802Z,18.30
2023-02-28T16:21:35.654Z,17.60
2023-02-28T16:24:26.151Z,18.02
2023-02-28T16:27:31.499Z,19.42
2023-02-28T16:30:25.198Z,19.30
2023-02-28T16:33:15.658Z,17.25
2023-02-28T16:36:07.253Z,19.23
2023-02-28T16:38:58.088Z,22.40
2023-02-28T16:41:50.774Z,20.55
2023-02-28T16:44:41.284Z,19.88
2023-02-28T16:47:32.879Z,18.83
2023-02-28T16:50:26.394Z,26.65
2023-02-28T16:53:18.998Z,23.17
2023-02-28T16:56:19.151Z,13.20
2023-02-28T16:59:11.035Z,21.42
2023-02-28T17:02:01.462Z,22.85
2023-02-28T17:04:51.457Z,21.38
2023-02-28T17:07:42.509Z,20.48
2023-02-28T17:10:32.675Z,22.42
2023-02-28T17:13:22.980Z,21.17
2023-02-28T17:16:41.078Z,26.05
2023-02-28T17:19:31.489Z,21.50
2023-02-28T17:22:21.810Z,27.10
2023-02-28T17:25:18.151Z,19.38
2023-02-28T17:28:10.137Z,21.75
2023-02-28T17:31:00.373Z,20.30
2023-02-28T17:33:51.144Z,27.63
2023-02-28T17:36:41.661Z,20.05
2023-02-28T17:39:31.911Z,21.13
2023-02-28T17:42:22.150Z,23.35
2023-02-28T17:45:13.084Z,22.95
2023-02-28T17:48:03.716Z,18.60
2023-02-28T17:50:55.064Z,24.13
2023-02-28T17:53:45.877Z,25.10
2023-02-28T17:56:36.454Z,20.83
2023-02-28T17:59:26.754Z,23.10
2023-02-28T18:02:17.900Z,21.17
2023-02-28T18:05:09.452Z,21.65
2023-02-28T18:07:59.896Z,25.30
2023-02-28T18:10:49.748Z,22.40
2023-02-28T18:13:39.762Z,22.95
2023-02-28T18:16:30.422Z,28.92
2023-02-28T18:19:21.265Z,24.13
2023-02-28T18:22:11.526Z,28.15
2023-02-28T18:25:02.589Z,23.75
2023-02-28T18:27:59.009Z,27.50
2023-02-28T18:30:49.063Z,28.13
2023-02-28T18:33:39.455Z,26.17
2023-02-28T18:36:30.175Z,34.60
2023-02-28T18:39:20.808Z,28.85
2023-02-28T18:42:10.784Z,27.25
2023-02-28T18:45:01.157Z,29.65
2023-02-28T18:47:51.028Z,30.10
2023-02-28T18:50:42.094Z,31.00
2023-02-28T18:53:40.097Z,30.88
2023-02-28T18:56:30.679Z,29.63
2023-02-28T18:59:20.911Z,28.50
2023-02-28T19:02:11.208Z,26.30
2023-02-28T19:05:01.682Z,27.73
2023-02-28T19:07:52.256Z,27.75
2023-02-28T19:10:42.308Z,34.10
2023-02-28T19:13:32.820Z,27.20
2023-02-28T19:16:24.147Z,58.05
2023-02-28T19:19:14.160Z,38.08
2023-02-28T19:22:04.565Z,31.45
2023-02-28T19:24:54.773Z,30.75
2023-02-28T19:27:44.753Z,30.55
2023-02-28T19:30:34.867Z,29.83
2023-02-28T19:33:25.282Z,29.35
2023-02-28T19:36:16.503Z,27.63
2023-02-28T19:39:07.060Z,27.75
2023-02-28T19:41:57.265Z,26.35
2023-02-28T19:44:47.784Z,28.73
2023-02-28T19:47:38.372Z,28.60
2023-02-28T19:50:28.916Z,29.25
2023-02-28T19:53:19.091Z,28.70
2023-02-28T19:56:10.081Z,28.60
2023-02-28T19:59:00.194Z,27.65
2023-02-28T20:01:54.553Z,27.38
2023-02-28T20:04:49.283Z,33.67
2023-02-28T20:07:39.494Z,33.20
2023-02-28T20:10:30.732Z,33.20
2023-02-28T20:13:20.666Z,31.92
2023-02-28T20:16:14.725Z,21.40
2023-02-28T20:19:05.043Z,30.52
2023-02-28T20:21:55.515Z,31.30
2023-02-28T20:24:47.688Z,35.05
2023-02-28T20:27:38.244Z,35.47
2023-02-28T20:30:28.136Z,31.13
2023-02-28T20:33:19.435Z,33.50
2023-02-28T20:36:11.910Z,27.50
2023-02-28T20:39:02.106Z,49.65
2023-02-28T20:41:52.383Z,42.50
2023-02-28T20:44:42.618Z,37.85
2023-02-28T20:47:33.190Z,32.78
2023-02-28T20:50:23.152Z,29.70
2023-02-28T20:53:13.304Z,30.02
2023-02-28T20:56:05.046Z,30.52
2023-02-28T20:58:58.094Z,34.60
2023-02-28T21:01:48.703Z,28.80
2023-02-28T21:04:38.959Z,30.40
2023-02-28T21:07:29.528Z,35.05
2023-02-28T21:10:19.886Z,36.50
2023-02-28T21:13:09.758Z,32.30
2023-02-28T21:16:05.707Z,33.33
2023-02-28T21:18:56.562Z,34.22
2023-02-28T21:21:48.149Z,34.65
2023-02-28T21:24:55.081Z,33.90
2023-02-28T21:27:45.557Z,31.00
2023-02-28T21:30:37.911Z,30.27
2023-02-28T21:33:28.120Z,32.00
2023-02-28T21:36:21.052Z,35.03
2023-02-28T21:39:18.344Z,30.52
2023-02-28T21:42:08.490Z,35.47
2023-02-28T21:44:58.910Z,34.45
2023-02-28T21:47:49.034Z,33.05
2023-02-28T21:50:39.890Z,33.25
2023-02-28T21:53:36.300Z,33.67
2023-02-28T21:56:35.377Z,34.90
2023-02-28T21:59:25.559Z,36.10
2023-02-28T22:02:16.178Z,36.53
2023-02-28T22:05:06.580Z,37.08
2023-02-28T22:07:56.692Z,32.40
2023-02-28T22:10:46.560Z,35.05
2023-02-28T22:13:37.379Z,40.72
2023-02-28T22:16:33.094Z,33.03
2023-02-28T22:19:29.365Z,39.22
2023-02-28T22:22:19.661Z,37.20
2023-02-28T22:25:10.272Z,32.03
2023-02-28T22:28:00.613Z,39.42
2023-02-28T22:30:51.110Z,35.78
2023-02-28T22:33:41.448Z,35.58
2023-02-28T22:36:32.560Z,32.85
2023-02-28T22:39:22.578Z,37.63
2023-02-28T22:42:13.039Z,35.40
2023-02-28T22:45:03.099Z,31.52
2023-02-28T22:47:53.313Z,35.13
2023-02-28T22:50:43.736Z,35.75
2023-02-28T22:53:35.418Z,31.35
2023-02-28T22:56:28.269Z,34.38
2023-02-28T22:59:18.937Z,32.88
2023-02-28T23:02:09.313Z,28.98
2023-02-28T23:04:59.682Z,28.67
2023-02-28T23:07:50.043Z,34.28
2023-02-28T23:10:43.634Z,32.15
2023-02-28T23:16:31.229Z,36.72
2023-02-28T23:19:27.732Z,34.88
2023-02-28T23:22:17.805Z,35.42
2023-02-28T23:25:08.129Z,33.85
2023-02-28T23:27:57.996Z,29.70
2023-02-28T23:30:48.378Z,33.17
2023-02-28T23:33:38.136Z,36.33
2023-02-28T23:36:29.406Z,41.28
2023-02-28T23:39:20.918Z,32.95
2023-02-28T23:42:11.091Z,30.63
2023-02-28T23:45:01.444Z,41.28
2023-02-28T23:50:45.136Z,33.22
2023-02-28T23:53:37.201Z,35.20
2023-02-28T23:56:27.363Z,33.78
2023-02-28T23:59:17.879Z,34.95
